ADDS TAF Board (Experimental) INFO Settings
IDs: Format: Expanded Condensed

KSLC - Salt Lake City Intl, UT, US

Issued at 0843 UTC 03 Aug 2015
Updated at: 1037 UTC 03 Aug 2015
Time0953Z 03/11Z 03/12Z 03/13Z 03/14Z 03/15Z 03/16Z 03/17Z 03/18Z 03/19Z 03/20Z 03/21Z 03/22Z 03/23Z
Type OBS PRVL PRVL PRVL PRVL PRVL PRVL PRVL PRVL PRVL PRVL PRVL PRVL PRVL
VIS 10 >6 >6 >6 >6 >6 >6 >6 >6 >6 >6 >6 >6 >6
CIG 100 70 70 70 70 70 120 120 120 120 -- -- -- --
Cover OVC BKN BKN BKN BKN BKN BKN BKN BKN BKN SCT SCT SCT SCT
FltCat VFR VFR VFR VFR VFR VFR VFR VFR VFR VFR VFR VFR VFR VFR
WX -RA -SHRA -SHRA -SHRA -SHRA -SHRA VCSH VCSH VCSH VCSH VCSH VCSH VCSH VCSH
WDir 170 170 170 170 170 170 170 170 170 170 270 270 270 270
WSpd 9 11 11 11 11 11 9 9 9 9 11 11 11 11
WGst -- 18 18 18 18 18 -- -- -- -- -- -- -- --
R14/32
XWnd -3 -3 -3 -3 -3 -3 -3 -3 -3 -3 -10 -10 -10 -10
XGst -- -5 -5 -5 -5 -5 -- -- -- -- -- -- -- --
HWnd 9 11 11 11 11 11 9 9 9 9 -5 -5 -5 -5
HGst -- 17 17 17 17 17 -- -- -- -- -- -- -- --
R16/34
XWnd 1 1 1 1 1 1 1 1 1 1 -11 -11 -11 -11
XGst -- 2 2 2 2 2 -- -- -- -- -- -- -- --
HWnd 9 11 11 11 11 11 9 9 9 9 -1 -1 -1 -1
HGst -- 18 18 18 18 18 -- -- -- -- -- -- -- --
R17/35
XWnd 2 2 2 2 2 2 2 2 2 2 -11 -11 -11 -11
XGst -- 3 3 3 3 3 -- -- -- -- -- -- -- --
HWnd 9 11 11 11 11 11 9 9 9 9 0 0 0 0
HGst -- 18 18 18 18 18 -- -- -- -- -- -- -- --
RHB/18
XWnd -2 -2 -2 -2 -2 -2 -2 -2 -2 -2 11 11 11 11
XGst -- -3 -3 -3 -3 -3 -- -- -- -- -- -- -- --
HWnd -9 -11 -11 -11 -11 -11 -9 -9 -9 -9 -0 -0 -0 -0
HGst -- -18 -18 -18 -18 -18 -- -- -- -- -- -- -- --

NOTE: TEMPO conditions in [brackets]. Keep in mind TEMPO conditions might be better (lower impact) than prevailing conditions.

Raw TAF
KSLC 030843Z 0309/0412 16018G26KT P6SM -SHRA SCT070 BKN090
  FM031000 17011G18KT P6SM -SHRA SCT050 BKN070
  FM031600 17009KT P6SM VCSH SCT080 BKN120
  FM032000 27011KT P6SM VCSH SCT090 SCT150
  FM040400 15007KT P6SM SCT150


Raw METAR
KSLC 030953Z 17009KT 10SM -RA BKN100 OVC120 19/14 A3004 RMK AO2 SLP115 P0001 T01940144
KSLC 030853Z 16015G23KT 10SM -RA OVC100 21/13 A3001 RMK AO2 PK WND 16027/0819 RAB36 SLP101 P0000 60000 T02110133 53005
KSLC 030753Z 18016G26KT 10SM FEW060 SCT075 BKN110 23/11 A2999 RMK AO2 PK WND 16033/0701 CIG 075 NW RNWY SLP094 T02330111

METAR Board
Radar Display
Forecast Discussion

TAF Board Legend

Potential Impact
Threat None Slight Moderate High
Visibility (sm) ≥5.1 5.1>X≥3 3>X≥1 <1
Ceiling (100 ft) ≥30.1 30.1>X≥10 10>X≥5 <5
Wind Speed (kt) <10 10≤X<20 20≤X<30 ≥30
Wind Gust (kt) <15 15≤X<25 25≤X<35 ≥35
Weather No Wx Reported VCTS,-TS,-FZRA,SN TS,FZRA +TS,+FZRA,+SN